Arma, Kansas
Current Conditions -  °F | °C
As of 2:35 AM on Sunday 26 Oct 2014 (Local Time) from KPTS Reporting Station
Clear Clear  
Wind Chill: 18°   Ceiling: Unl
Heat Index: 18°   Visibility: 7mi
Dew Point: 18°   Wind: 5mph
Humidity: 100%   Direction: 190°S
Pressure: 29.97"   Gusts: NA
Location:  37.54°N, 94.7°W
Report Text: KPTS 260735Z AUTO 19004KT 7SM CLR 18/18 A2997 RMK AO2 T01760177
Loading
Personal Weather Stations






























Interactive Weather Map
Tropical Storm Tracking
New forecast layout! Learn more

10-Day Weather Forecast

Advertisements
Track Severe Weather on mobile